Time;durP1;ratioP1;P1;durP2;ratioP2;P2;SDS_P1;SDS_P2;PMS_P1;PMS_P2;Temp;Humidity;BMP_temperature;BMP_pressure;BME280_temperature;BME280_humidity;BME280_pressure;Samples;Min_cycle;Max_cycle;Signal;HPM_P1;HPM_P2
2023/02/08 00:02:26;;;;;;;46.05;25.75;;;0.20;99.90;;;;;;5054931;28;20102;-54
2023/02/08 00:04:53;;;;;;;46.58;26.75;;;0.30;99.90;;;;;;5054784;28;20064;-53
2023/02/08 00:07:19;;;;;;;43.50;25.10;;;0.20;99.90;;;;;;5053634;28;20546;-50
2023/02/08 00:09:46;;;;;;;46.47;25.50;;;0.20;99.90;;;;;;5054674;28;20057;-54
2023/02/08 00:12:13;;;;;;;45.53;25.63;;;0.20;99.90;;;;;;5052623;28;20115;-47
2023/02/08 00:14:39;;;;;;;42.17;23.42;;;0.20;99.90;;;;;;5054577;28;20048;-50
2023/02/08 00:17:06;;;;;;;43.70;24.40;;;0.20;99.90;;;;;;5054218;28;20534;-55
2023/02/08 00:19:33;;;;;;;37.05;24.10;;;0.10;99.90;;;;;;5053658;28;20455;-51
2023/02/08 00:22:00;;;;;;;45.70;24.67;;;0.10;99.90;;;;;;5053225;28;20106;-54
2023/02/08 00:24:26;;;;;;;42.22;24.55;;;0.10;99.90;;;;;;5053486;28;20053;-51
2023/02/08 00:26:53;;;;;;;41.28;24.23;;;0.10;99.90;;;;;;5054188;28;20088;-54
2023/02/08 00:29:20;;;;;;;40.50;23.95;;;0.00;99.90;;;;;;5054419;28;20124;-51
2023/02/08 00:31:47;;;;;;;43.00;24.38;;;0.00;99.90;;;;;;5054287;28;20060;-50
2023/02/08 00:34:14;;;;;;;39.47;25.35;;;0.00;99.90;;;;;;5052143;28;20080;-52
2023/02/08 00:36:41;;;;;;;42.63;24.52;;;0.00;99.90;;;;;;5054424;28;20091;-49
2023/02/08 00:39:07;;;;;;;53.83;26.23;;;0.00;99.90;;;;;;5052088;28;20162;-48
2023/02/08 00:41:34;;;;;;;43.35;25.17;;;-0.10;99.90;;;;;;5053080;28;20047;-50
2023/02/08 00:44:01;;;;;;;45.65;24.77;;;-0.10;99.90;;;;;;5054004;28;20076;-49
2023/02/08 00:46:28;;;;;;;46.85;25.13;;;-0.10;99.90;;;;;;5053152;28;20436;-50
2023/02/08 00:48:54;;;;;;;37.92;23.30;;;-0.10;99.90;;;;;;5052498;28;20143;-47
2023/02/08 00:51:21;;;;;;;39.33;23.88;;;-0.10;99.90;;;;;;5052778;28;20192;-47
2023/02/08 00:53:48;;;;;;;43.58;24.67;;;-0.10;99.90;;;;;;5053465;28;20106;-48
2023/02/08 00:56:15;;;;;;;43.92;24.38;;;-0.20;99.90;;;;;;5052443;28;20103;-52
2023/02/08 00:58:42;;;;;;;38.95;23.00;;;-0.20;99.90;;;;;;5051077;28;20140;-50
2023/02/08 01:01:09;;;;;;;50.00;24.08;;;-0.20;99.90;;;;;;5054151;28;20056;-49
2023/02/08 01:03:36;;;;;;;41.28;23.83;;;-0.20;99.90;;;;;;5042233;28;20120;-52
2023/02/08 01:06:03;;;;;;;42.88;24.15;;;-0.20;99.90;;;;;;5034443;28;20217;-53
2023/02/08 01:08:31;;;;;;;48.60;25.77;;;-0.20;99.90;;;;;;5044565;28;20049;-52
2023/02/08 01:10:57;;;;;;;49.47;26.42;;;-0.30;99.90;;;;;;5053470;28;20075;-51
2023/02/08 01:13:24;;;;;;;41.22;25.52;;;-0.30;99.90;;;;;;5051673;28;20380;-49
2023/02/08 01:15:51;;;;;;;40.85;25.13;;;-0.30;99.90;;;;;;5053584;28;20057;-50
2023/02/08 01:18:18;;;;;;;41.17;25.05;;;-0.30;99.90;;;;;;5053194;28;20480;-52
2023/02/08 01:20:44;;;;;;;45.78;26.30;;;-0.30;99.90;;;;;;5040524;28;20054;-50
2023/02/08 01:23:11;;;;;;;45.78;25.77;;;-0.40;99.90;;;;;;5034108;28;20144;-52
2023/02/08 01:25:38;;;;;;;43.35;26.45;;;-0.40;99.90;;;;;;5033943;28;20369;-53
2023/02/08 01:28:05;;;;;;;47.03;25.13;;;-0.50;99.90;;;;;;5050748;28;20067;-53
2023/02/08 01:30:31;;;;;;;38.63;23.80;;;-0.50;99.90;;;;;;5052302;28;20045;-53
2023/02/08 01:32:58;;;;;;;44.10;24.83;;;-0.50;99.90;;;;;;5053731;28;20392;-50
2023/02/08 01:35:26;;;;;;;37.83;23.02;;;-0.40;99.90;;;;;;5053538;28;20481;-50
2023/02/08 01:37:53;;;;;;;47.40;24.15;;;-0.50;99.90;;;;;;5052313;28;20040;-52
2023/02/08 01:40:20;;;;;;;43.60;25.23;;;-0.50;99.90;;;;;;5053387;28;20496;-53
2023/02/08 01:42:46;;;;;;;37.03;23.58;;;-0.50;99.90;;;;;;5053520;28;20115;-54
2023/02/08 01:45:13;;;;;;;47.38;25.33;;;-0.50;99.90;;;;;;5053660;28;20095;-51
2023/02/08 01:47:40;;;;;;;46.95;23.95;;;-0.50;99.90;;;;;;5053694;28;20041;-50
2023/02/08 01:50:07;;;;;;;43.17;24.13;;;-0.50;99.90;;;;;;5052314;28;20103;-54
2023/02/08 01:52:33;;;;;;;45.08;26.38;;;-0.50;99.90;;;;;;5053652;28;20045;-53
2023/02/08 01:55:00;;;;;;;45.85;24.25;;;-0.50;99.90;;;;;;5054032;28;20100;-49
2023/02/08 01:57:27;;;;;;;41.30;24.55;;;-0.60;99.90;;;;;;5053493;28;20037;-53
2023/02/08 01:59:54;;;;;;;42.78;24.05;;;-0.60;99.90;;;;;;5052114;28;20067;-53
2023/02/08 02:02:21;;;;;;;41.53;25.42;;;-0.60;99.90;;;;;;5052594;28;20103;-52
2023/02/08 02:04:47;;;;;;;39.15;24.38;;;-0.60;99.90;;;;;;5052221;28;20542;-54
2023/02/08 02:07:14;;;;;;;42.15;23.77;;;-0.60;99.90;;;;;;5053189;28;20045;-52
2023/02/08 02:09:41;;;;;;;41.25;23.60;;;-0.70;99.90;;;;;;5053382;28;20045;-51
2023/02/08 02:12:08;;;;;;;44.63;24.52;;;-0.70;99.90;;;;;;5053092;28;20044;-50
2023/02/08 02:14:34;;;;;;;45.55;24.70;;;-0.70;99.90;;;;;;5053754;28;20037;-53
2023/02/08 02:17:01;;;;;;;41.90;23.15;;;-0.70;99.90;;;;;;5051942;28;20045;-53
2023/02/08 02:19:28;;;;;;;38.80;22.52;;;-0.70;99.90;;;;;;5053592;28;20071;-48
2023/02/08 02:21:55;;;;;;;43.97;22.17;;;-0.80;99.90;;;;;;5053460;28;20049;-51
2023/02/08 02:24:22;;;;;;;40.90;22.27;;;-0.80;99.90;;;;;;5051633;28;20362;-49
2023/02/08 02:26:49;;;;;;;38.80;22.52;;;-0.80;99.90;;;;;;5053385;28;20051;-50
2023/02/08 02:29:16;;;;;;;41.92;21.95;;;-0.80;99.90;;;;;;5053438;28;20489;-53
2023/02/08 02:31:42;;;;;;;42.08;21.92;;;-0.80;99.90;;;;;;5053070;28;20071;-48
2023/02/08 02:34:09;;;;;;;40.40;21.77;;;-0.80;99.90;;;;;;5052816;28;20052;-49
2023/02/08 02:36:36;;;;;;;42.60;22.23;;;-0.80;99.90;;;;;;5053191;28;20102;-54
2023/02/08 02:39:03;;;;;;;40.17;23.05;;;-0.80;99.90;;;;;;5052948;28;20598;-48
2023/02/08 02:44:15;;;;;;;34.53;20.52;;;-0.80;99.90;;;;;;5053411;28;20044;-50
2023/02/08 02:46:42;;;;;;;41.38;22.05;;;-0.80;99.90;;;;;;5051381;28;20053;-48
2023/02/08 02:49:08;;;;;;;37.10;22.45;;;-0.90;99.90;;;;;;5053023;28;20047;-53
2023/02/08 02:51:35;;;;;;;38.42;21.73;;;-0.90;99.90;;;;;;5052754;28;20036;-51
2023/02/08 02:54:02;;;;;;;40.40;21.25;;;-0.90;99.90;;;;;;5052826;28;20472;-52
2023/02/08 02:56:28;;;;;;;36.83;20.45;;;-1.00;99.90;;;;;;5052876;28;20081;-54
2023/02/08 02:58:55;;;;;;;40.95;20.58;;;-1.00;99.90;;;;;;5053166;28;20091;-50
2023/02/08 03:01:25;;;;;;;39.10;21.13;;;-1.00;99.90;;;;;;5053003;28;20094;-49
2023/02/08 03:03:52;;;;;;;42.25;20.77;;;-1.00;99.90;;;;;;5052850;28;20045;-51
2023/02/08 03:06:18;;;;;;;37.67;20.38;;;-1.10;99.90;;;;;;5052613;28;20076;-56
2023/02/08 03:08:45;;;;;;;40.05;20.38;;;-1.10;99.90;;;;;;5052604;28;20053;-52
2023/02/08 03:11:12;;;;;;;33.28;19.80;;;-1.10;99.90;;;;;;5053200;28;20538;-52
2023/02/08 03:13:38;;;;;;;35.28;18.40;;;-1.10;99.90;;;;;;5052895;28;20074;-48
2023/02/08 03:16:05;;;;;;;37.33;18.65;;;-1.10;99.90;;;;;;5054782;28;20033;-51
2023/02/08 03:18:32;;;;;;;44.92;20.55;;;-1.20;99.90;;;;;;5056553;28;20094;-48
2023/02/08 03:20:59;;;;;;;41.53;21.08;;;-1.20;99.90;;;;;;5056563;28;20082;-50
2023/02/08 03:23:25;;;;;;;43.53;19.83;;;-1.20;99.90;;;;;;5056451;28;20041;-52
2023/02/08 03:25:52;;;;;;;44.08;20.17;;;-1.20;99.90;;;;;;5056180;28;20431;-53
2023/02/08 03:28:19;;;;;;;46.67;21.42;;;-1.30;99.90;;;;;;5056315;28;20049;-55
2023/02/08 03:30:48;;;;;;;46.05;20.75;;;-1.30;99.90;;;;;;5056116;28;20049;-50
2023/02/08 03:33:15;;;;;;;42.35;20.27;;;-1.30;99.90;;;;;;5056275;28;20041;-52
2023/02/08 03:35:42;;;;;;;46.47;20.17;;;-1.20;99.90;;;;;;5056566;28;20041;-49
2023/02/08 03:38:09;;;;;;;42.35;19.88;;;-1.30;99.90;;;;;;5055965;28;20079;-48
2023/02/08 03:40:35;;;;;;;51.25;19.95;;;-1.20;99.90;;;;;;5056206;28;20064;-51
2023/02/08 03:43:02;;;;;;;48.30;20.38;;;-1.20;99.90;;;;;;5056336;28;20045;-49
2023/02/08 03:45:29;;;;;;;45.03;18.77;;;-1.20;99.90;;;;;;5056493;28;20419;-49
2023/02/08 03:47:55;;;;;;;35.15;17.77;;;-1.30;99.90;;;;;;5055506;28;20037;-51
2023/02/08 03:50:22;;;;;;;35.05;15.98;;;-1.30;99.90;;;;;;5055765;28;20052;-51
2023/02/08 03:52:49;;;;;;;32.42;16.33;;;-1.30;99.90;;;;;;5055922;28;20041;-51
2023/02/08 03:55:15;;;;;;;34.13;15.98;;;-1.30;99.90;;;;;;5055651;28;20090;-51
2023/02/08 03:57:42;;;;;;;33.83;15.00;;;-1.30;99.90;;;;;;5055578;28;20048;-50
2023/02/08 04:00:09;;;;;;;33.90;14.77;;;-1.30;99.90;;;;;;5055739;28;20468;-50
2023/02/08 04:02:38;;;;;;;30.90;15.02;;;-1.30;99.90;;;;;;5055792;28;20037;-52
2023/02/08 04:05:05;;;;;;;33.42;14.80;;;-1.30;99.90;;;;;;5055733;28;20052;-47
2023/02/08 04:07:32;;;;;;;28.33;14.48;;;-1.30;99.90;;;;;;5055191;28;20061;-54
2023/02/08 04:09:59;;;;;;;30.33;14.20;;;-1.40;99.90;;;;;;5054513;28;20049;-50
2023/02/08 04:12:25;;;;;;;24.77;14.43;;;-1.40;99.90;;;;;;5055609;28;20514;-48
2023/02/08 04:14:52;;;;;;;25.98;13.85;;;-1.40;99.90;;;;;;5055215;28;20111;-51
2023/02/08 04:17:19;;;;;;;25.42;13.27;;;-1.40;99.90;;;;;;5055576;28;20037;-50
2023/02/08 04:19:45;;;;;;;31.98;14.63;;;-1.40;99.90;;;;;;5055020;28;20045;-50
2023/02/08 04:22:12;;;;;;;28.55;13.52;;;-1.40;99.90;;;;;;5055380;28;20052;-51
2023/02/08 04:24:39;;;;;;;28.65;13.60;;;-1.50;99.90;;;;;;5054912;28;20094;-51
2023/02/08 04:27:06;;;;;;;26.25;13.60;;;-1.50;99.90;;;;;;5054940;28;20118;-50
2023/02/08 04:29:33;;;;;;;30.17;14.93;;;-1.50;99.90;;;;;;5055367;28;20124;-54
2023/02/08 04:32:00;;;;;;;24.23;13.23;;;-1.50;99.90;;;;;;5053746;28;20400;-52
2023/02/08 04:34:26;;;;;;;24.20;13.30;;;-1.50;99.90;;;;;;5054812;28;20041;-51
2023/02/08 04:36:53;;;;;;;28.45;13.38;;;-1.50;99.90;;;;;;5055082;28;20075;-53
2023/02/08 04:39:20;;;;;;;24.45;13.50;;;-1.50;99.90;;;;;;5055220;28;20095;-50
2023/02/08 04:41:47;;;;;;;26.73;13.32;;;-1.50;99.90;;;;;;5054725;28;20040;-48
2023/02/08 04:44:13;;;;;;;23.05;12.82;;;-1.60;99.90;;;;;;5054873;28;20053;-51
2023/02/08 04:46:40;;;;;;;24.45;12.05;;;-1.60;99.90;;;;;;5054932;28;20061;-52
2023/02/08 04:49:07;;;;;;;21.25;11.77;;;-1.60;99.90;;;;;;5054891;28;20464;-54
2023/02/08 04:51:34;;;;;;;23.50;12.45;;;-1.60;99.90;;;;;;5054304;28;20056;-48
2023/02/08 04:54:00;;;;;;;25.10;11.88;;;-1.60;99.90;;;;;;5054835;28;20068;-49
2023/02/08 04:56:27;;;;;;;24.40;13.02;;;-1.60;99.90;;;;;;5054380;28;20095;-50
2023/02/08 04:58:54;;;;;;;21.63;12.27;;;-1.70;99.90;;;;;;5054589;28;20041;-54
2023/02/08 05:01:20;;;;;;;23.48;12.07;;;-1.70;99.90;;;;;;5054544;28;20083;-51
2023/02/08 05:03:47;;;;;;;24.30;12.40;;;-1.70;99.90;;;;;;5054692;28;20041;-53
2023/02/08 05:06:14;;;;;;;25.02;12.65;;;-1.70;99.90;;;;;;5054732;28;20049;-52
2023/02/08 05:08:41;;;;;;;23.27;12.35;;;-1.70;99.90;;;;;;5054048;28;20079;-54
2023/02/08 05:11:08;;;;;;;20.58;11.45;;;-1.70;99.90;;;;;;5053985;28;20075;-54
2023/02/08 05:13:34;;;;;;;21.25;11.50;;;-1.70;99.90;;;;;;5054300;28;20068;-48
2023/02/08 05:16:01;;;;;;;25.42;11.63;;;-1.70;99.90;;;;;;5054119;28;20045;-49
2023/02/08 05:18:28;;;;;;;21.15;10.60;;;-1.80;99.90;;;;;;5054320;28;20059;-47
2023/02/08 05:20:55;;;;;;;22.02;11.52;;;-1.80;99.90;;;;;;5054450;28;20045;-50
2023/02/08 05:23:21;;;;;;;22.40;9.98;;;-1.80;99.90;;;;;;5054384;28;20473;-48
2023/02/08 05:25:48;;;;;;;19.30;9.68;;;-1.80;99.90;;;;;;5054371;28;20052;-49
2023/02/08 05:28:15;;;;;;;23.45;10.50;;;-1.90;99.90;;;;;;5054294;28;20450;-49
2023/02/08 05:30:41;;;;;;;24.40;10.80;;;-1.90;99.90;;;;;;5054180;28;20047;-45
2023/02/08 05:33:08;;;;;;;19.83;9.68;;;-1.90;99.90;;;;;;5054223;28;20419;-46
2023/02/08 05:35:35;;;;;;;17.25;9.90;;;-1.90;99.90;;;;;;5054038;28;20102;-46
2023/02/08 05:38:02;;;;;;;26.50;10.80;;;-1.90;99.90;;;;;;5053262;28;20049;-51
2023/02/08 05:40:28;;;;;;;17.55;9.13;;;-1.90;99.90;;;;;;5053382;28;20092;-50
2023/02/08 05:42:55;;;;;;;22.13;10.18;;;-2.00;99.90;;;;;;5053777;28;20044;-51
2023/02/08 05:45:22;;;;;;;19.80;9.82;;;-2.00;99.90;;;;;;5053348;28;20127;-52
2023/02/08 05:47:49;;;;;;;14.25;8.77;;;-2.00;99.90;;;;;;5053314;28;20094;-51
2023/02/08 05:50:15;;;;;;;18.45;9.48;;;-2.00;99.90;;;;;;5053809;28;20094;-52
2023/02/08 05:52:42;;;;;;;20.42;10.32;;;-2.00;99.90;;;;;;5053515;28;20052;-51
2023/02/08 05:55:09;;;;;;;16.95;10.00;;;-2.00;99.90;;;;;;5053831;28;20049;-53
2023/02/08 05:57:36;;;;;;;20.48;11.00;;;-2.00;99.90;;;;;;5053211;28;20087;-51
2023/02/08 06:00:03;;;;;;;21.65;11.52;;;-2.00;99.90;;;;;;5053688;28;20048;-49
2023/02/08 06:02:29;;;;;;;20.75;11.50;;;-2.00;99.90;;;;;;5053125;28;20041;-50
2023/02/08 06:04:56;;;;;;;21.25;10.95;;;-2.00;99.90;;;;;;5053261;28;20045;-55
2023/02/08 06:07:23;;;;;;;23.23;11.38;;;-2.10;99.90;;;;;;5053235;28;20072;-51
2023/02/08 06:09:49;;;;;;;19.55;10.77;;;-2.10;99.90;;;;;;5053717;28;20045;-52
2023/02/08 06:12:16;;;;;;;17.98;10.23;;;-2.10;99.90;;;;;;5053380;28;20040;-52
2023/02/08 06:14:43;;;;;;;21.63;10.77;;;-2.10;99.90;;;;;;5053102;28;20090;-54
2023/02/08 06:17:10;;;;;;;19.35;11.55;;;-2.10;99.90;;;;;;5053276;28;20056;-50
2023/02/08 06:19:37;;;;;;;18.55;10.82;;;-2.10;99.90;;;;;;5051993;28;20111;-51
2023/02/08 06:22:03;;;;;;;21.15;11.73;;;-2.10;99.90;;;;;;5053618;28;20099;-51
2023/02/08 06:24:30;;;;;;;19.17;10.55;;;-2.10;99.90;;;;;;5053299;28;20123;-52
2023/02/08 06:26:57;;;;;;;18.23;10.48;;;-2.10;99.90;;;;;;5052930;28;20095;-47
2023/02/08 06:29:24;;;;;;;18.95;9.60;;;-2.10;99.90;;;;;;5053113;28;20048;-52
2023/02/08 06:31:50;;;;;;;19.10;10.05;;;-2.20;99.90;;;;;;5053109;28;20045;-54
2023/02/08 06:34:17;;;;;;;16.38;9.73;;;-2.20;99.90;;;;;;5051826;28;20102;-49
2023/02/08 06:36:44;;;;;;;20.10;11.02;;;-2.20;99.90;;;;;;5052942;28;20033;-50
2023/02/08 06:39:11;;;;;;;18.17;9.45;;;-2.20;99.90;;;;;;5053117;28;20045;-51
2023/02/08 06:41:38;;;;;;;19.52;10.75;;;-2.20;99.90;;;;;;5053281;28;20124;-51
2023/02/08 06:44:04;;;;;;;15.43;9.45;;;-2.20;99.90;;;;;;5051604;28;20041;-53
2023/02/08 06:46:31;;;;;;;17.80;10.02;;;-2.20;99.90;;;;;;5052877;28;20099;-50
2023/02/08 06:48:59;;;;;;;17.95;10.43;;;-2.20;99.90;;;;;;5052819;28;20515;-49
2023/02/08 06:51:26;;;;;;;18.45;9.98;;;-2.20;99.90;;;;;;5055830;28;20056;-48
2023/02/08 06:53:52;;;;;;;17.65;9.82;;;-2.20;99.90;;;;;;5057042;28;20099;-53
2023/02/08 06:56:19;;;;;;;15.68;9.50;;;-2.20;99.90;;;;;;5056998;28;20044;-49
2023/02/08 06:58:46;;;;;;;18.33;9.77;;;-2.20;99.90;;;;;;5056962;28;20431;-53
2023/02/08 07:01:13;;;;;;;19.02;10.07;;;-2.20;99.90;;;;;;5056524;28;20044;-53
2023/02/08 07:03:39;;;;;;;17.98;10.13;;;-2.30;99.90;;;;;;5056919;28;20047;-52
2023/02/08 07:06:06;;;;;;;20.15;9.80;;;-2.20;99.90;;;;;;5056723;28;20045;-51
2023/02/08 07:08:33;;;;;;;19.35;9.65;;;-2.20;99.90;;;;;;5056552;28;20111;-51
2023/02/08 07:11:00;;;;;;;18.75;10.70;;;-2.20;99.90;;;;;;5057084;28;20037;-48
2023/02/08 07:13:26;;;;;;;16.30;9.70;;;-2.20;99.90;;;;;;5056614;28;20419;-50
2023/02/08 07:15:53;;;;;;;19.35;9.75;;;-2.30;99.90;;;;;;5056464;28;20447;-49
2023/02/08 07:18:20;;;;;;;20.88;9.45;;;-2.20;99.90;;;;;;5056407;28;20480;-50
2023/02/08 07:20:46;;;;;;;17.60;9.57;;;-2.20;99.90;;;;;;5056577;28;20103;-49
2023/02/08 07:23:13;;;;;;;19.10;9.93;;;-2.20;99.90;;;;;;5054707;28;20049;-49
2023/02/08 07:25:40;;;;;;;19.02;11.00;;;-2.20;99.90;;;;;;5056622;28;20045;-49
2023/02/08 07:28:07;;;;;;;15.13;9.48;;;-2.30;99.90;;;;;;5056561;28;20048;-52
2023/02/08 07:30:33;;;;;;;21.73;10.40;;;-2.30;99.90;;;;;;5056479;28;20045;-54
2023/02/08 07:33:00;;;;;;;18.35;10.73;;;-2.30;99.90;;;;;;5055782;28;20045;-52
2023/02/08 07:35:27;;;;;;;18.92;10.32;;;-2.30;99.90;;;;;;5055811;28;20050;-48
2023/02/08 07:37:54;;;;;;;19.75;11.25;;;-2.30;99.90;;;;;;5056053;28;20036;-53
2023/02/08 07:40:20;;;;;;;19.38;10.20;;;-2.30;99.90;;;;;;5054973;28;20095;-50
2023/02/08 07:42:47;;;;;;;18.00;10.15;;;-2.30;99.90;;;;;;5055386;28;20063;-50
2023/02/08 07:45:24;;;;;;;23.00;11.73;;;-2.30;99.90;;;;;;5054744;28;20102;-48
2023/02/08 07:47:51;;;;;;;20.75;11.70;;;-2.30;99.90;;;;;;5055822;28;20060;-48
2023/02/08 07:50:18;;;;;;;20.23;11.57;;;-2.20;99.90;;;;;;5055666;28;20076;-50
2023/02/08 07:52:46;;;;;;;24.58;11.18;;;-2.20;99.90;;;;;;5055579;28;20049;-50
2023/02/08 07:55:16;;;;;;;23.10;11.32;;;-2.20;99.90;;;;;;5056050;28;20049;-50
2023/02/08 07:57:42;;;;;;;19.92;11.52;;;-2.20;99.90;;;;;;5054084;28;20057;-54
2023/02/08 08:00:09;;;;;;;20.98;11.80;;;-2.20;99.90;;;;;;5037700;28;20405;-51
2023/02/08 08:02:38;;;;;;;24.38;12.93;;;-2.20;99.90;;;;;;5034860;28;20037;-46
2023/02/08 08:05:05;;;;;;;24.80;13.23;;;-2.20;99.90;;;;;;5035030;28;20073;-50
2023/02/08 08:07:32;;;;;;;25.08;13.63;;;-2.10;99.90;;;;;;5034734;28;20066;-47
2023/02/08 08:09:59;;;;;;;21.15;13.70;;;-2.10;99.90;;;;;;5035090;28;20091;-49
2023/02/08 08:12:25;;;;;;;25.42;13.27;;;-2.10;99.90;;;;;;5034957;28;20037;-47
2023/02/08 08:14:52;;;;;;;21.20;13.35;;;-2.10;99.90;;;;;;5035197;28;20553;-51
2023/02/08 08:17:19;;;;;;;29.77;15.20;;;-2.10;99.90;;;;;;5034760;28;20045;-46
2023/02/08 08:19:46;;;;;;;29.67;14.40;;;-2.00;99.90;;;;;;5034953;28;20045;-48
2023/02/08 08:22:12;;;;;;;25.65;14.38;;;-2.00;99.90;;;;;;5035064;28;20053;-49
2023/02/08 08:24:39;;;;;;;40.38;22.08;;;-1.90;99.90;;;;;;5034529;28;20073;-47
2023/02/08 08:27:06;;;;;;;44.80;14.40;;;-1.90;99.90;;;;;;5034526;28;20107;-50
2023/02/08 08:29:32;;;;;;;33.85;14.32;;;-1.90;99.90;;;;;;5033589;28;20045;-50
2023/02/08 08:31:59;;;;;;;33.83;13.75;;;-1.80;99.90;;;;;;5034702;28;20045;-50
2023/02/08 08:34:29;;;;;;;54.45;14.15;;;-1.80;99.90;;;;;;5034806;28;20041;-47
2023/02/08 08:36:56;;;;;;;32.13;14.05;;;-1.80;99.90;;;;;;5033935;28;20088;-47
2023/02/08 08:39:23;;;;;;;28.33;14.27;;;-1.70;99.90;;;;;;5033853;28;20080;-51
2023/02/08 08:41:50;;;;;;;60.70;38.20;;;-1.70;99.90;;;;;;5034926;28;20037;-55
2023/02/08 08:44:17;;;;;;;120.35;21.15;;;-1.60;99.90;;;;;;5034477;28;20403;-47
2023/02/08 08:46:44;;;;;;;28.23;14.35;;;-1.60;99.90;;;;;;5034815;28;20464;-55
2023/02/08 08:49:11;;;;;;;26.52;14.70;;;-1.50;99.90;;;;;;5034981;28;20120;-49
2023/02/08 08:51:38;;;;;;;25.52;13.52;;;-1.50;99.90;;;;;;5034681;28;20045;-51
2023/02/08 08:54:05;;;;;;;26.67;14.80;;;-1.40;99.90;;;;;;5016676;28;20033;-47
2023/02/08 08:56:32;;;;;;;27.27;15.00;;;-1.30;99.90;;;;;;5034588;28;20065;-51
2023/02/08 08:58:59;;;;;;;27.60;15.45;;;-1.30;99.90;;;;;;5034739;28;20443;-48
2023/02/08 09:01:26;;;;;;;24.88;14.38;;;-1.30;99.90;;;;;;5040495;28;20065;-53
2023/02/08 09:03:53;;;;;;;30.45;18.52;;;-1.20;99.90;;;;;;5053731;28;20045;-46
2023/02/08 09:06:20;;;;;;;32.22;17.42;;;-1.10;99.90;;;;;;5054046;28;20106;-48
2023/02/08 09:08:47;;;;;;;30.83;16.88;;;-1.00;99.90;;;;;;5054062;28;20057;-50
2023/02/08 09:11:17;;;;;;;28.52;17.13;;;-1.00;99.90;;;;;;5054797;28;20124;-48
2023/02/08 09:13:44;;;;;;;33.67;16.92;;;-1.00;99.90;;;;;;5052734;28;20041;-51
2023/02/08 09:16:11;;;;;;;35.30;17.83;;;-0.90;99.90;;;;;;5052848;28;20480;-48
2023/02/08 09:18:38;;;;;;;29.23;16.75;;;-0.80;99.90;;;;;;5052907;28;20733;-49
2023/02/08 09:21:05;;;;;;;30.85;17.17;;;-0.80;99.90;;;;;;5052912;28;20033;-49
2023/02/08 09:23:32;;;;;;;31.20;17.05;;;-0.80;99.90;;;;;;5052644;28;20037;-51
2023/02/08 09:25:58;;;;;;;27.98;16.92;;;-0.70;99.90;;;;;;5051302;28;20049;-48
2023/02/08 09:28:26;;;;;;;32.60;17.83;;;-0.60;99.90;;;;;;5051333;28;20053;-49
2023/02/08 09:30:53;;;;;;;34.10;19.38;;;-0.60;99.90;;;;;;5053522;28;20048;-54
2023/02/08 09:33:19;;;;;;;35.47;18.92;;;-0.50;99.90;;;;;;5054393;28;20090;-47
2023/02/08 09:35:46;;;;;;;40.60;21.67;;;-0.40;99.90;;;;;;5054330;28;20372;-50
2023/02/08 09:38:15;;;;;;;61.42;25.15;;;-0.40;99.90;;;;;;5053567;28;20067;-52
2023/02/08 09:40:42;;;;;;;68.70;23.02;;;-0.30;99.90;;;;;;5053942;28;20075;-47
2023/02/08 09:43:10;;;;;;;64.03;22.55;;;-0.20;99.90;;;;;;5054222;28;20135;-48
2023/02/08 09:45:37;;;;;;;51.90;27.20;;;-0.10;99.90;;;;;;5053891;28;20485;-47
2023/02/08 09:48:14;;;;;;;41.90;21.92;;;-0.10;99.90;;;;;;5052974;28;20053;-48
2023/02/08 09:50:41;;;;;;;32.13;20.80;;;0.00;99.90;;;;;;5054214;28;20064;-47
2023/02/08 09:53:08;;;;;;;41.05;21.13;;;0.10;99.90;;;;;;5052604;28;20045;-47
2023/02/08 09:55:35;;;;;;;32.30;18.88;;;0.10;99.90;;;;;;5052578;28;20041;-48
2023/02/08 09:58:02;;;;;;;35.08;21.38;;;0.20;99.90;;;;;;5053693;28;20567;-47
2023/02/08 10:00:28;;;;;;;39.47;24.27;;;0.20;99.90;;;;;;5053638;28;20044;-48
2023/02/08 10:02:55;;;;;;;41.33;23.63;;;0.30;99.90;;;;;;5053171;28;20539;-46
2023/02/08 10:05:22;;;;;;;41.42;25.67;;;0.40;99.90;;;;;;5053211;28;20041;-48
2023/02/08 10:07:49;;;;;;;38.22;25.08;;;0.40;99.90;;;;;;5053158;28;20079;-50
2023/02/08 10:10:15;;;;;;;42.88;25.02;;;0.40;99.90;;;;;;5052380;28;20442;-48
2023/02/08 10:12:42;;;;;;;41.10;25.00;;;0.50;99.90;;;;;;5053202;28;20506;-48
2023/02/08 10:15:09;;;;;;;39.28;25.83;;;0.60;99.90;;;;;;5053266;28;20045;-50
2023/02/08 10:17:36;;;;;;;38.95;26.17;;;0.60;99.90;;;;;;5053325;28;20037;-49
2023/02/08 10:20:02;;;;;;;44.05;28.52;;;0.70;99.90;;;;;;5053131;28;20098;-50
2023/02/08 10:22:29;;;;;;;39.80;27.23;;;0.80;99.90;;;;;;5053192;28;20049;-51
2023/02/08 10:24:56;;;;;;;42.88;27.77;;;0.90;99.90;;;;;;5054791;28;20106;-51
2023/02/08 10:27:23;;;;;;;37.92;27.25;;;1.00;99.90;;;;;;5057669;28;20037;-50
2023/02/08 10:29:49;;;;;;;51.58;29.10;;;1.10;99.90;;;;;;5057433;28;20041;-47
2023/02/08 10:32:16;;;;;;;43.60;28.50;;;1.20;99.90;;;;;;5057330;28;20049;-51
2023/02/08 10:34:43;;;;;;;45.28;27.05;;;1.20;99.90;;;;;;5057302;28;20041;-50
2023/02/08 10:37:10;;;;;;;41.33;26.17;;;1.30;99.90;;;;;;5056858;28;20040;-49
2023/02/08 10:39:36;;;;;;;41.30;26.48;;;1.30;99.90;;;;;;5057338;28;20037;-52
2023/02/08 10:42:03;;;;;;;40.70;27.73;;;1.40;99.90;;;;;;5057614;28;20045;-50
2023/02/08 10:44:30;;;;;;;44.00;26.70;;;1.50;99.90;;;;;;5057340;28;20083;-49
2023/02/08 10:46:57;;;;;;;43.25;26.92;;;1.50;99.90;;;;;;5057466;28;20057;-52
2023/02/08 10:49:23;;;;;;;42.17;28.60;;;1.60;99.90;;;;;;5057237;28;20103;-56
2023/02/08 10:51:50;;;;;;;50.70;29.50;;;1.70;99.90;;;;;;5057013;28;20049;-54
2023/02/08 10:54:17;;;;;;;45.38;29.08;;;1.80;99.90;;;;;;5056608;28;20460;-54
2023/02/08 10:56:44;;;;;;;47.20;29.85;;;1.90;99.90;;;;;;5056791;28;20039;-57
2023/02/08 10:59:10;;;;;;;48.15;29.33;;;2.00;99.90;;;;;;5056743;28;20045;-53
2023/02/08 11:01:37;;;;;;;45.72;28.92;;;2.10;99.90;;;;;;5057068;28;20071;-53
2023/02/08 11:04:04;;;;;;;46.40;31.05;;;2.20;99.90;;;;;;5056960;28;20106;-53
2023/02/08 11:06:31;;;;;;;51.17;29.98;;;2.20;99.90;;;;;;5056429;28;20045;-53
2023/02/08 11:08:58;;;;;;;43.10;28.85;;;2.20;99.90;;;;;;5055263;28;20377;-49
2023/02/08 11:11:25;;;;;;;48.78;31.15;;;2.30;99.90;;;;;;5056661;28;20041;-56
2023/02/08 11:13:52;;;;;;;42.22;29.70;;;2.30;99.90;;;;;;5056444;28;20041;-52
2023/02/08 11:16:19;;;;;;;46.45;30.05;;;2.50;99.90;;;;;;5056020;28;20117;-54
2023/02/08 11:18:46;;;;;;;45.95;30.17;;;2.50;99.90;;;;;;5056018;28;20044;-53
2023/02/08 11:21:12;;;;;;;42.17;28.63;;;2.50;99.90;;;;;;5056229;28;20437;-50
2023/02/08 11:23:39;;;;;;;44.22;30.02;;;2.60;99.90;;;;;;5056422;28;20110;-54
2023/02/08 11:26:06;;;;;;;43.67;31.27;;;2.60;99.90;;;;;;5056263;28;20056;-54
2023/02/08 11:28:33;;;;;;;46.60;31.27;;;2.70;99.90;;;;;;5055066;28;20037;-50
2023/02/08 11:30:59;;;;;;;42.95;27.83;;;2.70;99.90;;;;;;5056635;28;20053;-52
2023/02/08 11:33:26;;;;;;;40.08;26.05;;;2.80;99.90;;;;;;5056045;28;20144;-56
2023/02/08 11:35:53;;;;;;;36.88;24.63;;;2.90;99.90;;;;;;5055438;28;20041;-52
2023/02/08 11:38:26;;;;;;;37.85;25.27;;;3.10;99.90;;;;;;5056323;28;20124;-55
2023/02/08 11:40:53;;;;;;;40.78;26.75;;;3.10;99.90;;;;;;5056069;28;20051;-49
2023/02/08 11:43:20;;;;;;;38.63;23.20;;;3.10;99.90;;;;;;5056205;28;20045;-52
2023/02/08 11:45:47;;;;;;;35.65;21.90;;;3.20;99.90;;;;;;5056006;28;20064;-54
2023/02/08 11:48:14;;;;;;;28.08;20.02;;;3.20;99.90;;;;;;5056080;28;20040;-54
2023/02/08 11:50:40;;;;;;;26.88;19.80;;;3.30;99.90;;;;;;5055937;28;20103;-54
2023/02/08 11:53:07;;;;;;;32.20;22.42;;;3.30;99.90;;;;;;5055652;28;20041;-49
2023/02/08 11:55:34;;;;;;;32.90;22.13;;;3.30;99.90;;;;;;5055779;28;20037;-54
2023/02/08 11:58:01;;;;;;;30.42;21.75;;;3.30;99.90;;;;;;5055809;28;20044;-55
2023/02/08 12:00:27;;;;;;;34.88;23.17;;;3.30;99.90;;;;;;5055503;28;20041;-54
2023/02/08 12:02:54;;;;;;;32.50;21.52;;;3.40;99.90;;;;;;5054121;28;20065;-51
2023/02/08 12:05:21;;;;;;;29.75;20.45;;;3.40;99.90;;;;;;5055705;28;20127;-54
2023/02/08 12:07:48;;;;;;;27.25;19.67;;;3.40;99.90;;;;;;5055205;28;20069;-56
2023/02/08 12:10:14;;;;;;;61.25;22.45;;;3.50;99.90;;;;;;5055681;28;20443;-53
2023/02/08 12:12:41;;;;;;;30.60;19.38;;;3.60;99.90;;;;;;5055408;28;20117;-53
2023/02/08 12:15:08;;;;;;;21.90;15.75;;;3.60;99.90;;;;;;5055447;28;20423;-53
2023/02/08 12:17:35;;;;;;;24.70;17.27;;;3.60;99.90;;;;;;5055727;28;20069;-54
2023/02/08 12:20:01;;;;;;;27.23;19.35;;;3.60;99.90;;;;;;5055091;28;20110;-56
2023/02/08 12:22:28;;;;;;;25.33;18.08;;;3.70;99.90;;;;;;5055029;28;20083;-52
2023/02/08 12:24:55;;;;;;;36.95;19.48;;;3.80;99.90;;;;;;5054914;28;20051;-50
2023/02/08 12:27:26;;;;;;;36.40;19.95;;;3.80;99.90;;;;;;5055389;28;20063;-54
2023/02/08 12:29:53;;;;;;;27.33;18.63;;;3.90;99.90;;;;;;5053485;28;20060;-52
2023/02/08 12:32:20;;;;;;;27.67;18.95;;;3.90;99.90;;;;;;5054857;28;20041;-53